sensor_id;sensor_type;location;lat;lon;timestamp;pressure;altitude;pressure_sealevel;temperature;humidity
13367;BME280;6752;52.612;13.630;2022-09-03T00:04:02;101277.66;;;14.25;71.75
13367;BME280;6752;52.612;13.630;2022-09-03T00:09:33;101273.96;;;14.16;72.14
13367;BME280;6752;52.612;13.630;2022-09-03T00:14:22;101272.95;;;14.05;72.52
13367;BME280;6752;52.612;13.630;2022-09-03T00:19:26;101265.39;;;14.04;72.68
13367;BME280;6752;52.612;13.630;2022-09-03T00:24:28;101268.88;;;14.11;72.59
13367;BME280;6752;52.612;13.630;2022-09-03T00:29:37;101265.84;;;14.01;72.74
13367;BME280;6752;52.612;13.630;2022-09-03T00:34:39;101273.52;;;13.92;73.17
13367;BME280;6752;52.612;13.630;2022-09-03T00:39:40;101262.44;;;14.11;72.58
13367;BME280;6752;52.612;13.630;2022-09-03T00:55:34;101268.44;;;13.77;73.82
13367;BME280;6752;52.612;13.630;2022-09-03T01:00:32;101261.73;;;13.82;73.74
13367;BME280;6752;52.612;13.630;2022-09-03T01:05:41;101262.56;;;13.83;73.79
13367;BME280;6752;52.612;13.630;2022-09-03T01:10:45;101254.91;;;13.70;74.00
13367;BME280;6752;52.612;13.630;2022-09-03T01:32:18;101251.67;;;13.67;74.25
13367;BME280;6752;52.612;13.630;2022-09-03T01:47:53;101243.08;;;13.63;74.13
13367;BME280;6752;52.612;13.630;2022-09-03T01:53:02;101236.03;;;13.62;74.36
13367;BME280;6752;52.612;13.630;2022-09-03T01:58:01;101235.96;;;13.59;74.21
13367;BME280;6752;52.612;13.630;2022-09-03T02:03:03;101240.67;;;13.61;74.11
13367;BME280;6752;52.612;13.630;2022-09-03T02:08:05;101243.16;;;13.44;74.69
13367;BME280;6752;52.612;13.630;2022-09-03T02:13:09;101240.87;;;13.54;74.31
13367;BME280;6752;52.612;13.630;2022-09-03T02:18:25;101244.61;;;13.47;74.32
13367;BME280;6752;52.612;13.630;2022-09-03T02:23:17;101246.23;;;13.33;74.96
13367;BME280;6752;52.612;13.630;2022-09-03T02:28:19;101250.98;;;13.32;74.80
13367;BME280;6752;52.612;13.630;2022-09-03T02:33:21;101249.00;;;13.14;75.75
13367;BME280;6752;52.612;13.630;2022-09-03T02:38:24;101249.61;;;13.16;75.73
13367;BME280;6752;52.612;13.630;2022-09-03T02:43:44;101251.59;;;12.77;76.86
13367;BME280;6752;52.612;13.630;2022-09-03T02:48:43;101252.09;;;12.96;76.51
13367;BME280;6752;52.612;13.630;2022-09-03T02:53:46;101246.73;;;12.83;77.32
13367;BME280;6752;52.612;13.630;2022-09-03T02:58:48;101252.73;;;12.66;77.86
13367;BME280;6752;52.612;13.630;2022-09-03T03:03:51;101249.92;;;12.45;78.64
13367;BME280;6752;52.612;13.630;2022-09-03T03:08:53;101249.33;;;12.39;78.93
13367;BME280;6752;52.612;13.630;2022-09-03T03:13:55;101249.69;;;12.27;79.81
13367;BME280;6752;52.612;13.630;2022-09-03T03:18:57;101256.30;;;12.35;80.52
13367;BME280;6752;52.612;13.630;2022-09-03T03:24:00;101253.59;;;12.25;81.92
13367;BME280;6752;52.612;13.630;2022-09-03T03:29:01;101243.27;;;12.34;82.71
13367;BME280;6752;52.612;13.630;2022-09-03T03:34:03;101246.94;;;12.50;82.32
13367;BME280;6752;52.612;13.630;2022-09-03T03:39:08;101247.09;;;12.61;81.53
13367;BME280;6752;52.612;13.630;2022-09-03T03:44:11;101252.05;;;12.78;81.20
13367;BME280;6752;52.612;13.630;2022-09-03T03:49:13;101254.24;;;12.75;82.20
13367;BME280;6752;52.612;13.630;2022-09-03T03:54:15;101266.42;;;12.82;82.70
13367;BME280;6752;52.612;13.630;2022-09-03T03:59:18;101262.65;;;12.92;82.79
13367;BME280;6752;52.612;13.630;2022-09-03T04:04:20;101266.08;;;12.97;83.43
13367;BME280;6752;52.612;13.630;2022-09-03T04:09:23;101260.66;;;13.05;83.89
13367;BME280;6752;52.612;13.630;2022-09-03T04:14:26;101251.50;;;13.06;84.40
13367;BME280;6752;52.612;13.630;2022-09-03T04:19:27;101254.13;;;13.07;85.04
13367;BME280;6752;52.612;13.630;2022-09-03T04:24:30;101255.69;;;13.09;85.55
13367;BME280;6752;52.612;13.630;2022-09-03T04:29:32;101249.52;;;13.04;86.35
13367;BME280;6752;52.612;13.630;2022-09-03T04:34:34;101250.84;;;12.95;87.85
13367;BME280;6752;52.612;13.630;2022-09-03T04:39:37;101246.44;;;13.06;87.67
13367;BME280;6752;52.612;13.630;2022-09-03T04:44:39;101247.56;;;12.96;88.15
13367;BME280;6752;52.612;13.630;2022-09-03T04:49:41;101255.52;;;13.00;88.94
13367;BME280;6752;52.612;13.630;2022-09-03T04:54:44;101249.73;;;13.15;88.64
13367;BME280;6752;52.612;13.630;2022-09-03T04:59:46;101262.99;;;13.15;88.38
13367;BME280;6752;52.612;13.630;2022-09-03T05:04:49;101257.37;;;13.35;88.04
13367;BME280;6752;52.612;13.630;2022-09-03T05:09:51;101254.42;;;13.45;87.55
13367;BME280;6752;52.612;13.630;2022-09-03T05:14:53;101259.77;;;13.68;87.12
13367;BME280;6752;52.612;13.630;2022-09-03T05:19:56;101265.91;;;13.94;86.48
13367;BME280;6752;52.612;13.630;2022-09-03T05:24:58;101262.45;;;14.02;85.21
13367;BME280;6752;52.612;13.630;2022-09-03T05:30:00;101258.42;;;14.19;84.84
13367;BME280;6752;52.612;13.630;2022-09-03T05:35:03;101260.49;;;14.24;84.40
13367;BME280;6752;52.612;13.630;2022-09-03T05:40:05;101264.93;;;14.49;83.50
13367;BME280;6752;52.612;13.630;2022-09-03T05:45:08;101264.19;;;14.63;82.86
13367;BME280;6752;52.612;13.630;2022-09-03T05:50:10;101268.52;;;14.55;82.78
13367;BME280;6752;52.612;13.630;2022-09-03T05:55:13;101253.68;;;15.13;81.29
13367;BME280;6752;52.612;13.630;2022-09-03T06:00:15;101259.47;;;15.08;78.89
13367;BME280;6752;52.612;13.630;2022-09-03T06:05:17;101259.84;;;15.62;77.45
13367;BME280;6752;52.612;13.630;2022-09-03T06:10:20;101253.22;;;15.34;76.38
13367;BME280;6752;52.612;13.630;2022-09-03T06:15:22;101268.45;;;15.27;77.63
13367;BME280;6752;52.612;13.630;2022-09-03T06:20:24;101264.13;;;15.02;78.71
13367;BME280;6752;52.612;13.630;2022-09-03T06:25:27;101258.71;;;14.89;79.41
13367;BME280;6752;52.612;13.630;2022-09-03T06:30:29;101260.85;;;14.82;79.74
13367;BME280;6752;52.612;13.630;2022-09-03T06:35:32;101262.21;;;14.97;78.73
13367;BME280;6752;52.612;13.630;2022-09-03T06:40:34;101265.35;;;15.18;78.47
13367;BME280;6752;52.612;13.630;2022-09-03T06:45:36;101263.08;;;15.26;77.59
13367;BME280;6752;52.612;13.630;2022-09-03T06:50:39;101262.79;;;15.49;76.49
13367;BME280;6752;52.612;13.630;2022-09-03T06:55:41;101269.55;;;15.61;76.26
13367;BME280;6752;52.612;13.630;2022-09-03T07:00:43;101274.98;;;15.47;77.02
13367;BME280;6752;52.612;13.630;2022-09-03T07:05:46;101280.74;;;15.69;76.39
13367;BME280;6752;52.612;13.630;2022-09-03T07:10:48;101269.89;;;15.94;75.75
13367;BME280;6752;52.612;13.630;2022-09-03T07:15:59;101275.05;;;16.05;74.28
13367;BME280;6752;52.612;13.630;2022-09-03T07:21:02;101262.19;;;16.08;74.13
13367;BME280;6752;52.612;13.630;2022-09-03T07:26:05;101269.39;;;16.43;73.42
13367;BME280;6752;52.612;13.630;2022-09-03T07:31:07;101275.17;;;16.36;72.47
13367;BME280;6752;52.612;13.630;2022-09-03T07:36:10;101273.53;;;16.86;72.20
13367;BME280;6752;52.612;13.630;2022-09-03T07:41:14;101267.70;;;17.16;71.10
13367;BME280;6752;52.612;13.630;2022-09-03T07:46:18;101277.14;;;17.11;71.10
13367;BME280;6752;52.612;13.630;2022-09-03T07:51:20;101278.28;;;17.49;69.33
13367;BME280;6752;52.612;13.630;2022-09-03T07:56:22;101275.06;;;18.10;68.09
13367;BME280;6752;52.612;13.630;2022-09-03T08:01:24;101275.62;;;18.34;65.50
13367;BME280;6752;52.612;13.630;2022-09-03T08:06:27;101271.44;;;19.07;64.88
13367;BME280;6752;52.612;13.630;2022-09-03T08:11:29;101280.16;;;18.67;63.77
13367;BME280;6752;52.612;13.630;2022-09-03T08:16:32;101271.42;;;18.91;63.83
13367;BME280;6752;52.612;13.630;2022-09-03T08:21:33;101277.23;;;18.92;64.06
13367;BME280;6752;52.612;13.630;2022-09-03T08:26:37;101268.63;;;19.34;62.72
13367;BME280;6752;52.612;13.630;2022-09-03T08:31:38;101273.48;;;20.32;61.16
13367;BME280;6752;52.612;13.630;2022-09-03T08:36:40;101266.02;;;20.64;60.59
13367;BME280;6752;52.612;13.630;2022-09-03T08:47:13;101254.11;;;20.74;57.85
13367;BME280;6752;52.612;13.630;2022-09-03T08:52:23;101248.73;;;21.57;55.86
13367;BME280;6752;52.612;13.630;2022-09-03T08:57:23;101244.02;;;21.50;55.22
13367;BME280;6752;52.612;13.630;2022-09-03T09:02:57;101244.19;;;21.36;53.62
13367;BME280;6752;52.612;13.630;2022-09-03T09:13:33;101240.44;;;22.34;50.91
13367;BME280;6752;52.612;13.630;2022-09-03T09:18:28;101229.64;;;23.11;50.18
13367;BME280;6752;52.612;13.630;2022-09-03T09:23:31;101223.27;;;23.08;49.62
13367;BME280;6752;52.612;13.630;2022-09-03T09:28:35;101228.73;;;23.04;49.04
13367;BME280;6752;52.612;13.630;2022-09-03T09:33:37;101212.55;;;23.81;48.85
13367;BME280;6752;52.612;13.630;2022-09-03T09:38:39;101214.84;;;23.47;48.55
13367;BME280;6752;52.612;13.630;2022-09-03T09:43:42;101202.96;;;24.23;46.33
13367;BME280;6752;52.612;13.630;2022-09-03T09:48:48;101195.22;;;23.21;44.96
13367;BME280;6752;52.612;13.630;2022-09-03T09:54:25;101196.71;;;23.91;45.54
13367;BME280;6752;52.612;13.630;2022-09-03T09:59:19;101186.02;;;24.19;45.16
13367;BME280;6752;52.612;13.630;2022-09-03T10:04:28;101190.91;;;24.93;44.04
13367;BME280;6752;52.612;13.630;2022-09-03T10:09:28;101188.28;;;24.48;43.11
13367;BME280;6752;52.612;13.630;2022-09-03T10:14:33;101177.91;;;24.70;41.37
13367;BME280;6752;52.612;13.630;2022-09-03T10:20:21;101186.72;;;25.19;43.45
13367;BME280;6752;52.612;13.630;2022-09-03T10:24:47;101183.36;;;25.03;41.91
13367;BME280;6752;52.612;13.630;2022-09-03T10:29:45;101176.63;;;25.43;42.03
13367;BME280;6752;52.612;13.630;2022-09-03T10:35:23;101170.66;;;26.05;40.18
13367;BME280;6752;52.612;13.630;2022-09-03T10:45:55;101178.84;;;25.51;39.20
13367;BME280;6752;52.612;13.630;2022-09-03T10:51:12;101156.75;;;25.11;40.57
13367;BME280;6752;52.612;13.630;2022-09-03T10:56:24;101169.42;;;24.61;41.97
13367;BME280;6752;52.612;13.630;2022-09-03T11:06:38;101155.64;;;23.56;43.73
13367;BME280;6752;52.612;13.630;2022-09-03T11:11:35;101154.30;;;23.36;44.38
13367;BME280;6752;52.612;13.630;2022-09-03T11:16:44;101154.63;;;23.06;44.51
13367;BME280;6752;52.612;13.630;2022-09-03T11:21:41;101147.20;;;22.82;44.49
13367;BME280;6752;52.612;13.630;2022-09-03T11:26:44;101140.00;;;24.62;44.53
13367;BME280;6752;52.612;13.630;2022-09-03T11:31:59;101143.28;;;23.65;44.97
13367;BME280;6752;52.612;13.630;2022-09-03T11:37:26;101131.81;;;23.93;44.09
13367;BME280;6752;52.612;13.630;2022-09-03T11:42:10;101130.15;;;24.10;45.17
13367;BME280;6752;52.612;13.630;2022-09-03T11:47:19;101129.92;;;24.96;43.03
13367;BME280;6752;52.612;13.630;2022-09-03T11:52:14;101119.31;;;24.40;43.60
13367;BME280;6752;52.612;13.630;2022-09-03T11:57:29;101117.55;;;24.06;43.79
13367;BME280;6752;52.612;13.630;2022-09-03T12:02:31;101115.27;;;24.48;43.83
13367;BME280;6752;52.612;13.630;2022-09-03T12:13:17;101106.66;;;23.31;44.42
13367;BME280;6752;52.612;13.630;2022-09-03T12:18:19;101096.95;;;23.05;44.20
13367;BME280;6752;52.612;13.630;2022-09-03T12:23:49;101093.38;;;24.42;43.21
13367;BME280;6752;52.612;13.630;2022-09-03T12:28:35;101085.06;;;24.27;42.60
13367;BME280;6752;52.612;13.630;2022-09-03T12:33:39;101083.20;;;24.74;41.70
13367;BME280;6752;52.612;13.630;2022-09-03T12:38:38;101088.06;;;24.14;41.83
13367;BME280;6752;52.612;13.630;2022-09-03T12:43:47;101073.23;;;24.28;41.15
13367;BME280;6752;52.612;13.630;2022-09-03T12:48:53;101068.17;;;23.29;42.38
13367;BME280;6752;52.612;13.630;2022-09-03T12:53:55;101075.34;;;23.23;42.02
13367;BME280;6752;52.612;13.630;2022-09-03T12:58:58;101062.80;;;23.71;42.68
13367;BME280;6752;52.612;13.630;2022-09-03T13:04:09;101061.45;;;23.56;42.77
13367;BME280;6752;52.612;13.630;2022-09-03T13:09:07;101049.27;;;23.50;41.89
13367;BME280;6752;52.612;13.630;2022-09-03T13:14:12;101050.23;;;23.83;41.79
13367;BME280;6752;52.612;13.630;2022-09-03T13:19:18;101046.09;;;25.06;40.70
13367;BME280;6752;52.612;13.630;2022-09-03T13:30:03;101035.67;;;25.18;39.93
13367;BME280;6752;52.612;13.630;2022-09-03T13:35:16;101039.22;;;23.94;41.62
13367;BME280;6752;52.612;13.630;2022-09-03T13:40:21;101039.98;;;23.90;41.93
13367;BME280;6752;52.612;13.630;2022-09-03T13:45:40;101033.48;;;24.04;41.24
13367;BME280;6752;52.612;13.630;2022-09-03T13:51:05;101038.45;;;23.48;42.08
13367;BME280;6752;52.612;13.630;2022-09-03T14:07:02;101037.65;;;23.24;42.09
13367;BME280;6752;52.612;13.630;2022-09-03T14:17:32;101022.17;;;23.98;41.79
13367;BME280;6752;52.612;13.630;2022-09-03T14:22:42;101011.77;;;24.03;41.19
13367;BME280;6752;52.612;13.630;2022-09-03T14:27:39;101011.55;;;24.68;40.89
13367;BME280;6752;52.612;13.630;2022-09-03T14:32:53;101013.77;;;23.63;40.95
13367;BME280;6752;52.612;13.630;2022-09-03T14:38:14;101023.05;;;23.10;42.42
13367;BME280;6752;52.612;13.630;2022-09-03T14:43:16;101019.63;;;23.40;42.31
13367;BME280;6752;52.612;13.630;2022-09-03T14:48:21;101001.01;;;24.06;41.13
13367;BME280;6752;52.612;13.630;2022-09-03T14:53:35;101001.80;;;24.19;41.28
13367;BME280;6752;52.612;13.630;2022-09-03T15:09:29;100992.98;;;23.95;40.71
13367;BME280;6752;52.612;13.630;2022-09-03T15:14:45;101004.19;;;23.81;41.18
13367;BME280;6752;52.612;13.630;2022-09-03T15:30:10;101000.09;;;24.11;41.00
13367;BME280;6752;52.612;13.630;2022-09-03T15:35:35;100996.27;;;23.91;41.37
13367;BME280;6752;52.612;13.630;2022-09-03T15:45:56;101000.35;;;23.58;41.96
13367;BME280;6752;52.612;13.630;2022-09-03T15:51:08;100995.45;;;23.87;42.15
13367;BME280;6752;52.612;13.630;2022-09-03T16:01:44;100996.34;;;23.24;42.12
13367;BME280;6752;52.612;13.630;2022-09-03T16:07:02;101003.96;;;23.04;41.98
13367;BME280;6752;52.612;13.630;2022-09-03T16:17:28;101006.55;;;22.98;42.29
13367;BME280;6752;52.612;13.630;2022-09-03T16:22:29;101008.23;;;22.79;42.51
13367;BME280;6752;52.612;13.630;2022-09-03T16:33:05;101011.92;;;22.43;43.49
13367;BME280;6752;52.612;13.630;2022-09-03T16:43:32;101014.51;;;22.17;44.63
13367;BME280;6752;52.612;13.630;2022-09-03T17:09:17;101015.19;;;21.80;45.77
13367;BME280;6752;52.612;13.630;2022-09-03T17:19:58;101021.13;;;21.60;46.28
13367;BME280;6752;52.612;13.630;2022-09-03T17:24:58;101022.20;;;21.40;46.62
13367;BME280;6752;52.612;13.630;2022-09-03T17:30:27;101023.78;;;21.31;46.80
13367;BME280;6752;52.612;13.630;2022-09-03T17:46:30;101040.87;;;21.04;48.05
13367;BME280;6752;52.612;13.630;2022-09-03T18:02:34;101047.22;;;20.62;48.50
13367;BME280;6752;52.612;13.630;2022-09-03T18:08:10;101052.46;;;20.56;48.75
13367;BME280;6752;52.612;13.630;2022-09-03T18:13:15;101060.77;;;20.38;49.21
13367;BME280;6752;52.612;13.630;2022-09-03T18:18:26;101063.23;;;20.29;49.66
13367;BME280;6752;52.612;13.630;2022-09-03T18:23:32;101068.50;;;20.26;50.26
13367;BME280;6752;52.612;13.630;2022-09-03T18:29:02;101072.93;;;20.14;51.28
13367;BME280;6752;52.612;13.630;2022-09-03T18:34:18;101081.47;;;19.97;52.38
13367;BME280;6752;52.612;13.630;2022-09-03T18:39:37;101085.02;;;19.82;52.58
13367;BME280;6752;52.612;13.630;2022-09-03T18:45:27;101084.05;;;19.75;52.41
13367;BME280;6752;52.612;13.630;2022-09-03T18:50:34;101091.98;;;19.56;53.50
13367;BME280;6752;52.612;13.630;2022-09-03T18:56:01;101092.14;;;19.37;54.02
13367;BME280;6752;52.612;13.630;2022-09-03T19:01:32;101094.04;;;19.26;54.17
13367;BME280;6752;52.612;13.630;2022-09-03T19:07:02;101087.02;;;19.08;53.90
13367;BME280;6752;52.612;13.630;2022-09-03T19:23:47;101094.27;;;18.93;53.77
13367;BME280;6752;52.612;13.630;2022-09-03T19:29:12;101092.77;;;18.76;54.32
13367;BME280;6752;52.612;13.630;2022-09-03T19:34:44;101100.61;;;18.73;55.28
13367;BME280;6752;52.612;13.630;2022-09-03T19:51:39;101111.20;;;18.40;56.00
13367;BME280;6752;52.612;13.630;2022-09-03T19:56:58;101112.52;;;18.46;55.55
13367;BME280;6752;52.612;13.630;2022-09-03T20:02:18;101114.07;;;18.37;55.97
13367;BME280;6752;52.612;13.630;2022-09-03T20:07:38;101116.81;;;18.35;56.11
13367;BME280;6752;52.612;13.630;2022-09-03T20:13:06;101119.17;;;18.37;56.38
13367;BME280;6752;52.612;13.630;2022-09-03T20:19:09;101134.11;;;18.41;56.34
13367;BME280;6752;52.612;13.630;2022-09-03T20:23:37;101138.72;;;18.30;56.42
13367;BME280;6752;52.612;13.630;2022-09-03T20:28:33;101137.14;;;18.39;56.43
13367;BME280;6752;52.612;13.630;2022-09-03T20:39:01;101138.15;;;18.28;56.70
13367;BME280;6752;52.612;13.630;2022-09-03T20:44:09;101143.05;;;18.37;56.24
13367;BME280;6752;52.612;13.630;2022-09-03T20:54:36;101143.14;;;18.31;55.61
13367;BME280;6752;52.612;13.630;2022-09-03T21:05:16;101139.88;;;18.37;55.38
13367;BME280;6752;52.612;13.630;2022-09-03T21:20:43;101140.48;;;18.44;55.28
13367;BME280;6752;52.612;13.630;2022-09-03T21:26:06;101146.05;;;18.33;55.28
13367;BME280;6752;52.612;13.630;2022-09-03T21:31:11;101145.98;;;18.41;55.28
13367;BME280;6752;52.612;13.630;2022-09-03T21:36:15;101156.50;;;18.45;54.97
13367;BME280;6752;52.612;13.630;2022-09-03T21:41:22;101156.28;;;18.35;55.03
13367;BME280;6752;52.612;13.630;2022-09-03T21:46:33;101164.78;;;18.45;54.96
13367;BME280;6752;52.612;13.630;2022-09-03T21:51:56;101162.34;;;18.46;54.98
13367;BME280;6752;52.612;13.630;2022-09-03T22:07:25;101181.64;;;18.21;55.41
13367;BME280;6752;52.612;13.630;2022-09-03T22:17:53;101180.39;;;18.20;55.65
13367;BME280;6752;52.612;13.630;2022-09-03T22:33:29;101185.84;;;18.13;56.58
13367;BME280;6752;52.612;13.630;2022-09-03T22:43:41;101193.83;;;18.12;56.84
13367;BME280;6752;52.612;13.630;2022-09-03T22:59:22;101202.70;;;18.03;57.98
13367;BME280;6752;52.612;13.630;2022-09-03T23:04:33;101216.36;;;18.04;57.95
13367;BME280;6752;52.612;13.630;2022-09-03T23:09:34;101219.14;;;17.95;58.46
13367;BME280;6752;52.612;13.630;2022-09-03T23:14:45;101223.23;;;18.01;58.32
13367;BME280;6752;52.612;13.630;2022-09-03T23:19:47;101225.89;;;17.83;58.95
13367;BME280;6752;52.612;13.630;2022-09-03T23:24:54;101221.44;;;17.79;58.97
13367;BME280;6752;52.612;13.630;2022-09-03T23:29:54;101216.24;;;17.66;59.44
13367;BME280;6752;52.612;13.630;2022-09-03T23:34:57;101222.39;;;17.51;59.74
13367;BME280;6752;52.612;13.630;2022-09-03T23:40:06;101218.17;;;17.54;60.09
13367;BME280;6752;52.612;13.630;2022-09-03T23:45:40;101226.02;;;17.46;59.96
